sensor_id;sensor_type;location;lat;lon;timestamp;temperature;humidity
6496;DHT22;3281;47.658;9.166;2023-10-31T00:00:09;11.60;1.00
6496;DHT22;3281;47.658;9.166;2023-10-31T00:02:37;11.60;1.00
6496;DHT22;3281;47.658;9.166;2023-10-31T00:05:05;11.50;1.00
6496;DHT22;3281;47.658;9.166;2023-10-31T00:07:32;11.50;1.00
6496;DHT22;3281;47.658;9.166;2023-10-31T00:09:58;11.50;1.00
6496;DHT22;3281;47.658;9.166;2023-10-31T00:12:25;11.60;1.00
6496;DHT22;3281;47.658;9.166;2023-10-31T00:14:51;11.60;1.00
6496;DHT22;3281;47.658;9.166;2023-10-31T00:17:18;11.60;1.00
6496;DHT22;3281;47.658;9.166;2023-10-31T00:19:44;11.60;1.00
6496;DHT22;3281;47.658;9.166;2023-10-31T00:22:12;11.50;1.00
6496;DHT22;3281;47.658;9.166;2023-10-31T00:24:39;11.50;1.00
6496;DHT22;3281;47.658;9.166;2023-10-31T00:27:05;11.50;1.00
6496;DHT22;3281;47.658;9.166;2023-10-31T00:29:32;11.70;1.00
6496;DHT22;3281;47.658;9.166;2023-10-31T00:31:58;11.60;1.00
6496;DHT22;3281;47.658;9.166;2023-10-31T00:34:25;11.60;1.00
6496;DHT22;3281;47.658;9.166;2023-10-31T00:36:51;11.70;1.00
6496;DHT22;3281;47.658;9.166;2023-10-31T00:39:19;11.70;1.00
6496;DHT22;3281;47.658;9.166;2023-10-31T00:41:47;11.60;1.00
6496;DHT22;3281;47.658;9.166;2023-10-31T00:44:13;11.70;1.00
6496;DHT22;3281;47.658;9.166;2023-10-31T00:46:40;11.70;1.00
6496;DHT22;3281;47.658;9.166;2023-10-31T00:49:06;11.70;1.00
6496;DHT22;3281;47.658;9.166;2023-10-31T00:51:33;11.80;1.00
6496;DHT22;3281;47.658;9.166;2023-10-31T00:53:59;11.80;1.00
6496;DHT22;3281;47.658;9.166;2023-10-31T00:56:27;11.80;1.00
6496;DHT22;3281;47.658;9.166;2023-10-31T00:58:54;11.80;1.00
6496;DHT22;3281;47.658;9.166;2023-10-31T01:01:20;11.70;1.00
6496;DHT22;3281;47.658;9.166;2023-10-31T01:03:47;11.70;1.00
6496;DHT22;3281;47.658;9.166;2023-10-31T01:06:13;11.70;1.00
6496;DHT22;3281;47.658;9.166;2023-10-31T01:08:40;11.80;1.00
6496;DHT22;3281;47.658;9.166;2023-10-31T01:11:06;11.70;1.00
6496;DHT22;3281;47.658;9.166;2023-10-31T01:13:34;11.70;1.00
6496;DHT22;3281;47.658;9.166;2023-10-31T01:16:01;11.70;1.00
6496;DHT22;3281;47.658;9.166;2023-10-31T01:18:27;11.70;1.00
6496;DHT22;3281;47.658;9.166;2023-10-31T01:20:54;11.70;1.00
6496;DHT22;3281;47.658;9.166;2023-10-31T01:23:20;11.70;1.00
6496;DHT22;3281;47.658;9.166;2023-10-31T01:25:48;11.70;1.00
6496;DHT22;3281;47.658;9.166;2023-10-31T01:28:14;11.60;1.00
6496;DHT22;3281;47.658;9.166;2023-10-31T01:30:42;11.70;1.00
6496;DHT22;3281;47.658;9.166;2023-10-31T01:33:09;11.70;1.00
6496;DHT22;3281;47.658;9.166;2023-10-31T01:35:35;11.70;1.00
6496;DHT22;3281;47.658;9.166;2023-10-31T01:38:02;11.70;1.00
6496;DHT22;3281;47.658;9.166;2023-10-31T01:40:28;11.70;1.00
6496;DHT22;3281;47.658;9.166;2023-10-31T01:42:55;11.70;1.00
6496;DHT22;3281;47.658;9.166;2023-10-31T01:45:22;11.70;1.00
6496;DHT22;3281;47.658;9.166;2023-10-31T01:47:50;11.70;1.00
6496;DHT22;3281;47.658;9.166;2023-10-31T01:50:16;11.70;1.00
6496;DHT22;3281;47.658;9.166;2023-10-31T01:52:44;11.70;1.00
6496;DHT22;3281;47.658;9.166;2023-10-31T01:55:10;11.80;1.00
6496;DHT22;3281;47.658;9.166;2023-10-31T01:57:37;11.70;1.00
6496;DHT22;3281;47.658;9.166;2023-10-31T02:00:04;11.60;1.00
6496;DHT22;3281;47.658;9.166;2023-10-31T02:02:32;11.70;1.00
6496;DHT22;3281;47.658;9.166;2023-10-31T02:05:00;11.60;1.00
6496;DHT22;3281;47.658;9.166;2023-10-31T02:07:27;11.70;1.00
6496;DHT22;3281;47.658;9.166;2023-10-31T02:09:53;11.70;1.00
6496;DHT22;3281;47.658;9.166;2023-10-31T02:12:32;11.70;1.00
6496;DHT22;3281;47.658;9.166;2023-10-31T02:14:59;11.70;1.00
6496;DHT22;3281;47.658;9.166;2023-10-31T02:17:25;11.70;1.00
6496;DHT22;3281;47.658;9.166;2023-10-31T02:19:51;11.70;1.00
6496;DHT22;3281;47.658;9.166;2023-10-31T02:22:18;11.70;1.00
6496;DHT22;3281;47.658;9.166;2023-10-31T02:24:45;11.80;1.00
6496;DHT22;3281;47.658;9.166;2023-10-31T02:27:12;11.80;1.00
6496;DHT22;3281;47.658;9.166;2023-10-31T02:29:38;11.70;1.00
6496;DHT22;3281;47.658;9.166;2023-10-31T02:32:05;11.70;1.00
6496;DHT22;3281;47.658;9.166;2023-10-31T02:34:32;11.70;1.00
6496;DHT22;3281;47.658;9.166;2023-10-31T02:36:59;11.70;1.00
6496;DHT22;3281;47.658;9.166;2023-10-31T02:39:27;11.80;1.00
6496;DHT22;3281;47.658;9.166;2023-10-31T02:41:54;11.70;1.00
6496;DHT22;3281;47.658;9.166;2023-10-31T02:44:20;11.70;1.00
6496;DHT22;3281;47.658;9.166;2023-10-31T02:46:47;11.60;1.00
6496;DHT22;3281;47.658;9.166;2023-10-31T02:49:13;11.70;1.00
6496;DHT22;3281;47.658;9.166;2023-10-31T02:51:40;11.70;1.00
6496;DHT22;3281;47.658;9.166;2023-10-31T02:54:06;11.70;1.00
6496;DHT22;3281;47.658;9.166;2023-10-31T02:56:34;11.80;1.00
6496;DHT22;3281;47.658;9.166;2023-10-31T02:59:01;11.70;1.00
6496;DHT22;3281;47.658;9.166;2023-10-31T03:01:28;11.80;1.00
6496;DHT22;3281;47.658;9.166;2023-10-31T03:03:54;11.70;1.00
6496;DHT22;3281;47.658;9.166;2023-10-31T03:06:21;11.70;1.00
6496;DHT22;3281;47.658;9.166;2023-10-31T03:08:47;11.70;1.00
6496;DHT22;3281;47.658;9.166;2023-10-31T03:11:20;11.70;1.00
6496;DHT22;3281;47.658;9.166;2023-10-31T03:13:48;11.60;1.00
6496;DHT22;3281;47.658;9.166;2023-10-31T03:16:15;11.70;1.00
6496;DHT22;3281;47.658;9.166;2023-10-31T03:18:41;11.70;1.00
6496;DHT22;3281;47.658;9.166;2023-10-31T03:21:08;11.70;1.00
6496;DHT22;3281;47.658;9.166;2023-10-31T03:23:34;11.70;1.00
6496;DHT22;3281;47.658;9.166;2023-10-31T03:26:01;11.70;1.00
6496;DHT22;3281;47.658;9.166;2023-10-31T03:28:27;11.70;1.00
6496;DHT22;3281;47.658;9.166;2023-10-31T03:30:55;11.80;1.00
6496;DHT22;3281;47.658;9.166;2023-10-31T03:33:22;11.80;1.00
6496;DHT22;3281;47.658;9.166;2023-10-31T03:35:49;11.80;1.00
6496;DHT22;3281;47.658;9.166;2023-10-31T03:38:15;11.90;1.00
6496;DHT22;3281;47.658;9.166;2023-10-31T03:40:42;11.90;1.00
6496;DHT22;3281;47.658;9.166;2023-10-31T03:43:08;11.90;1.00
6496;DHT22;3281;47.658;9.166;2023-10-31T03:45:35;11.80;1.00
6496;DHT22;3281;47.658;9.166;2023-10-31T03:48:03;11.90;1.00
6496;DHT22;3281;47.658;9.166;2023-10-31T03:50:30;11.90;1.00
6496;DHT22;3281;47.658;9.166;2023-10-31T03:52:56;11.80;1.00
6496;DHT22;3281;47.658;9.166;2023-10-31T03:55:23;11.80;1.00
6496;DHT22;3281;47.658;9.166;2023-10-31T03:57:50;11.70;1.00
6496;DHT22;3281;47.658;9.166;2023-10-31T04:00:17;11.70;1.00
6496;DHT22;3281;47.658;9.166;2023-10-31T04:02:43;11.70;1.00
6496;DHT22;3281;47.658;9.166;2023-10-31T04:05:11;11.70;1.00
6496;DHT22;3281;47.658;9.166;2023-10-31T04:07:38;11.60;1.00
6496;DHT22;3281;47.658;9.166;2023-10-31T04:10:05;11.70;1.00
6496;DHT22;3281;47.658;9.166;2023-10-31T04:12:31;11.60;1.00
6496;DHT22;3281;47.658;9.166;2023-10-31T04:14:58;11.50;1.00
6496;DHT22;3281;47.658;9.166;2023-10-31T04:17:24;11.60;1.00
6496;DHT22;3281;47.658;9.166;2023-10-31T04:19:51;11.50;1.00
6496;DHT22;3281;47.658;9.166;2023-10-31T04:22:19;11.60;1.00
6496;DHT22;3281;47.658;9.166;2023-10-31T04:24:45;11.60;1.00
6496;DHT22;3281;47.658;9.166;2023-10-31T04:27:12;11.50;1.00
6496;DHT22;3281;47.658;9.166;2023-10-31T04:29:39;11.50;1.00
6496;DHT22;3281;47.658;9.166;2023-10-31T04:32:05;11.40;1.00
6496;DHT22;3281;47.658;9.166;2023-10-31T04:34:32;11.40;1.00
6496;DHT22;3281;47.658;9.166;2023-10-31T04:36:59;11.40;1.00
6496;DHT22;3281;47.658;9.166;2023-10-31T04:39:27;11.40;1.00
6496;DHT22;3281;47.658;9.166;2023-10-31T04:41:53;11.30;1.00
6496;DHT22;3281;47.658;9.166;2023-10-31T04:44:20;11.30;1.00
6496;DHT22;3281;47.658;9.166;2023-10-31T04:46:46;11.40;1.00
6496;DHT22;3281;47.658;9.166;2023-10-31T04:49:13;11.30;1.00
6496;DHT22;3281;47.658;9.166;2023-10-31T04:51:40;11.30;1.00
6496;DHT22;3281;47.658;9.166;2023-10-31T04:54:07;11.20;1.00
6496;DHT22;3281;47.658;9.166;2023-10-31T04:56:35;11.20;1.00
6496;DHT22;3281;47.658;9.166;2023-10-31T04:59:02;11.20;1.00
6496;DHT22;3281;47.658;9.166;2023-10-31T05:01:29;11.20;1.00
6496;DHT22;3281;47.658;9.166;2023-10-31T05:03:55;11.10;1.00
6496;DHT22;3281;47.658;9.166;2023-10-31T05:06:22;11.10;1.00
6496;DHT22;3281;47.658;9.166;2023-10-31T05:08:49;11.10;1.00
6496;DHT22;3281;47.658;9.166;2023-10-31T05:11:16;11.10;1.00
6496;DHT22;3281;47.658;9.166;2023-10-31T05:13:44;11.10;1.00
6496;DHT22;3281;47.658;9.166;2023-10-31T05:16:10;11.20;1.00
6496;DHT22;3281;47.658;9.166;2023-10-31T05:18:37;11.10;1.00
6496;DHT22;3281;47.658;9.166;2023-10-31T05:21:04;11.20;1.00
6496;DHT22;3281;47.658;9.166;2023-10-31T05:23:30;11.10;1.00
6496;DHT22;3281;47.658;9.166;2023-10-31T05:25:57;11.20;1.00
6496;DHT22;3281;47.658;9.166;2023-10-31T05:28:24;11.20;1.00
6496;DHT22;3281;47.658;9.166;2023-10-31T05:30:52;11.20;1.00
6496;DHT22;3281;47.658;9.166;2023-10-31T05:33:18;11.10;1.00
6496;DHT22;3281;47.658;9.166;2023-10-31T05:35:45;11.20;1.00
6496;DHT22;3281;47.658;9.166;2023-10-31T05:38:11;11.20;1.00
6496;DHT22;3281;47.658;9.166;2023-10-31T05:40:38;11.20;1.00
6496;DHT22;3281;47.658;9.166;2023-10-31T05:43:04;11.20;1.00
6496;DHT22;3281;47.658;9.166;2023-10-31T05:45:31;11.10;1.00
6496;DHT22;3281;47.658;9.166;2023-10-31T05:48:00;11.20;1.00
6496;DHT22;3281;47.658;9.166;2023-10-31T05:50:27;11.10;1.00
6496;DHT22;3281;47.658;9.166;2023-10-31T05:52:53;11.20;1.00
6496;DHT22;3281;47.658;9.166;2023-10-31T05:55:20;11.30;1.00
6496;DHT22;3281;47.658;9.166;2023-10-31T05:57:46;11.30;1.00
6496;DHT22;3281;47.658;9.166;2023-10-31T06:00:13;11.20;1.00
6496;DHT22;3281;47.658;9.166;2023-10-31T06:02:40;11.20;1.00
6496;DHT22;3281;47.658;9.166;2023-10-31T06:05:08;11.20;1.00
6496;DHT22;3281;47.658;9.166;2023-10-31T06:07:34;11.20;1.00
6496;DHT22;3281;47.658;9.166;2023-10-31T06:10:01;11.20;1.00
6496;DHT22;3281;47.658;9.166;2023-10-31T06:12:28;11.30;1.00
6496;DHT22;3281;47.658;9.166;2023-10-31T06:14:54;11.20;1.00
6496;DHT22;3281;47.658;9.166;2023-10-31T06:17:22;11.10;1.00
6496;DHT22;3281;47.658;9.166;2023-10-31T06:19:50;11.00;1.00
6496;DHT22;3281;47.658;9.166;2023-10-31T06:22:18;11.00;1.00
6496;DHT22;3281;47.658;9.166;2023-10-31T06:24:44;10.90;1.00
6496;DHT22;3281;47.658;9.166;2023-10-31T06:27:11;10.90;1.00
6496;DHT22;3281;47.658;9.166;2023-10-31T06:29:37;11.00;1.00
6496;DHT22;3281;47.658;9.166;2023-10-31T06:32:04;11.10;1.00
6496;DHT22;3281;47.658;9.166;2023-10-31T06:34:31;11.10;1.00
6496;DHT22;3281;47.658;9.166;2023-10-31T06:36:57;11.10;1.00
6496;DHT22;3281;47.658;9.166;2023-10-31T06:39:25;11.20;1.00
6496;DHT22;3281;47.658;9.166;2023-10-31T06:41:54;11.20;1.00
6496;DHT22;3281;47.658;9.166;2023-10-31T06:44:20;11.20;1.00
6496;DHT22;3281;47.658;9.166;2023-10-31T06:46:47;11.20;1.00
6496;DHT22;3281;47.658;9.166;2023-10-31T06:49:13;11.20;1.00
6496;DHT22;3281;47.658;9.166;2023-10-31T06:51:40;11.30;1.00
6496;DHT22;3281;47.658;9.166;2023-10-31T06:54:06;11.20;1.00
6496;DHT22;3281;47.658;9.166;2023-10-31T06:56:34;11.20;1.00
6496;DHT22;3281;47.658;9.166;2023-10-31T06:59:01;11.20;1.00
6496;DHT22;3281;47.658;9.166;2023-10-31T07:01:27;11.20;1.00
6496;DHT22;3281;47.658;9.166;2023-10-31T07:03:54;11.30;1.00
6496;DHT22;3281;47.658;9.166;2023-10-31T07:06:20;11.30;1.00
6496;DHT22;3281;47.658;9.166;2023-10-31T07:08:47;11.30;1.00
6496;DHT22;3281;47.658;9.166;2023-10-31T07:11:13;11.30;1.00
6496;DHT22;3281;47.658;9.166;2023-10-31T07:13:41;11.30;1.00
6496;DHT22;3281;47.658;9.166;2023-10-31T07:16:09;11.30;1.00
6496;DHT22;3281;47.658;9.166;2023-10-31T07:18:36;11.40;1.00
6496;DHT22;3281;47.658;9.166;2023-10-31T07:21:03;11.40;1.00
6496;DHT22;3281;47.658;9.166;2023-10-31T07:23:29;11.30;1.00
6496;DHT22;3281;47.658;9.166;2023-10-31T07:25:56;11.40;1.00
6496;DHT22;3281;47.658;9.166;2023-10-31T07:28:22;11.40;1.00
6496;DHT22;3281;47.658;9.166;2023-10-31T07:30:50;11.40;1.00
6496;DHT22;3281;47.658;9.166;2023-10-31T07:33:17;11.50;1.00
6496;DHT22;3281;47.658;9.166;2023-10-31T07:35:43;11.50;1.00
6496;DHT22;3281;47.658;9.166;2023-10-31T07:38:10;11.60;1.00
6496;DHT22;3281;47.658;9.166;2023-10-31T07:40:36;11.60;1.00
6496;DHT22;3281;47.658;9.166;2023-10-31T07:43:03;11.70;1.00
6496;DHT22;3281;47.658;9.166;2023-10-31T07:45:29;11.80;1.00
6496;DHT22;3281;47.658;9.166;2023-10-31T07:47:57;11.80;1.00
6496;DHT22;3281;47.658;9.166;2023-10-31T07:50:24;11.70;1.00
6496;DHT22;3281;47.658;9.166;2023-10-31T07:52:50;11.70;1.00
6496;DHT22;3281;47.658;9.166;2023-10-31T07:55:18;11.70;1.00
6496;DHT22;3281;47.658;9.166;2023-10-31T07:57:44;11.80;1.00
6496;DHT22;3281;47.658;9.166;2023-10-31T08:00:11;11.80;1.00
6496;DHT22;3281;47.658;9.166;2023-10-31T08:02:38;11.80;1.00
6496;DHT22;3281;47.658;9.166;2023-10-31T08:05:06;11.80;1.00
6496;DHT22;3281;47.658;9.166;2023-10-31T08:07:33;11.70;1.00
6496;DHT22;3281;47.658;9.166;2023-10-31T08:09:59;11.80;1.00
6496;DHT22;3281;47.658;9.166;2023-10-31T08:12:26;11.80;1.00
6496;DHT22;3281;47.658;9.166;2023-10-31T08:14:53;12.00;1.00
6496;DHT22;3281;47.658;9.166;2023-10-31T08:17:19;12.00;1.00
6496;DHT22;3281;47.658;9.166;2023-10-31T08:19:46;11.90;1.00
6496;DHT22;3281;47.658;9.166;2023-10-31T08:22:14;11.80;1.00
6496;DHT22;3281;47.658;9.166;2023-10-31T08:24:41;11.70;1.00
6496;DHT22;3281;47.658;9.166;2023-10-31T08:27:07;11.80;1.00
6496;DHT22;3281;47.658;9.166;2023-10-31T08:29:34;11.80;1.00
6496;DHT22;3281;47.658;9.166;2023-10-31T08:32:00;11.80;1.00
6496;DHT22;3281;47.658;9.166;2023-10-31T08:34:27;11.90;1.00
6496;DHT22;3281;47.658;9.166;2023-10-31T08:36:54;11.90;1.00
6496;DHT22;3281;47.658;9.166;2023-10-31T08:39:23;11.90;1.00
6496;DHT22;3281;47.658;9.166;2023-10-31T08:41:50;12.00;1.00
6496;DHT22;3281;47.658;9.166;2023-10-31T08:44:16;12.10;1.00
6496;DHT22;3281;47.658;9.166;2023-10-31T08:46:43;12.20;1.00
6496;DHT22;3281;47.658;9.166;2023-10-31T08:49:10;12.30;1.00
6496;DHT22;3281;47.658;9.166;2023-10-31T08:51:36;12.10;1.00
6496;DHT22;3281;47.658;9.166;2023-10-31T08:54:03;12.20;1.00
6496;DHT22;3281;47.658;9.166;2023-10-31T08:56:31;12.20;1.00
6496;DHT22;3281;47.658;9.166;2023-10-31T08:58:57;12.20;1.00
6496;DHT22;3281;47.658;9.166;2023-10-31T09:01:24;12.20;1.00
6496;DHT22;3281;47.658;9.166;2023-10-31T09:03:51;12.20;1.00
6496;DHT22;3281;47.658;9.166;2023-10-31T09:06:18;12.30;1.00
6496;DHT22;3281;47.658;9.166;2023-10-31T09:08:44;12.30;1.00
6496;DHT22;3281;47.658;9.166;2023-10-31T09:11:11;12.40;1.00
6496;DHT22;3281;47.658;9.166;2023-10-31T09:13:38;12.30;1.00
6496;DHT22;3281;47.658;9.166;2023-10-31T09:16:05;12.30;1.00
6496;DHT22;3281;47.658;9.166;2023-10-31T09:18:32;12.30;1.00
6496;DHT22;3281;47.658;9.166;2023-10-31T09:20:59;12.30;1.00
6496;DHT22;3281;47.658;9.166;2023-10-31T09:23:26;12.40;1.00
6496;DHT22;3281;47.658;9.166;2023-10-31T09:25:53;12.50;1.00
6496;DHT22;3281;47.658;9.166;2023-10-31T09:28:20;12.50;1.00
6496;DHT22;3281;47.658;9.166;2023-10-31T09:30:48;12.60;1.00
6496;DHT22;3281;47.658;9.166;2023-10-31T09:33:15;12.70;1.00
6496;DHT22;3281;47.658;9.166;2023-10-31T09:35:41;12.80;1.00
6496;DHT22;3281;47.658;9.166;2023-10-31T09:38:08;12.90;1.00
6496;DHT22;3281;47.658;9.166;2023-10-31T09:40:36;13.00;1.00
6496;DHT22;3281;47.658;9.166;2023-10-31T09:43:02;12.80;1.00
6496;DHT22;3281;47.658;9.166;2023-10-31T09:45:29;12.70;1.00
6496;DHT22;3281;47.658;9.166;2023-10-31T09:47:58;12.70;1.00
6496;DHT22;3281;47.658;9.166;2023-10-31T09:50:25;12.80;1.00
6496;DHT22;3281;47.658;9.166;2023-10-31T09:52:52;12.80;1.00
6496;DHT22;3281;47.658;9.166;2023-10-31T09:55:19;12.90;1.00
6496;DHT22;3281;47.658;9.166;2023-10-31T09:57:45;12.80;1.00
6496;DHT22;3281;47.658;9.166;2023-10-31T10:00:12;12.90;1.00
6496;DHT22;3281;47.658;9.166;2023-10-31T10:02:39;13.00;1.00
6496;DHT22;3281;47.658;9.166;2023-10-31T10:05:09;13.00;1.00
6496;DHT22;3281;47.658;9.166;2023-10-31T10:07:35;13.10;1.00
6496;DHT22;3281;47.658;9.166;2023-10-31T10:10:02;13.10;1.00
6496;DHT22;3281;47.658;9.166;2023-10-31T10:12:28;13.00;1.00
6496;DHT22;3281;47.658;9.166;2023-10-31T10:14:56;13.10;1.00
6496;DHT22;3281;47.658;9.166;2023-10-31T10:17:23;13.30;1.00
6496;DHT22;3281;47.658;9.166;2023-10-31T10:20:00;13.40;1.00
6496;DHT22;3281;47.658;9.166;2023-10-31T10:22:32;13.50;1.00
6496;DHT22;3281;47.658;9.166;2023-10-31T10:24:58;13.60;1.00
6496;DHT22;3281;47.658;9.166;2023-10-31T10:27:25;13.60;1.00
6496;DHT22;3281;47.658;9.166;2023-10-31T10:29:52;13.70;1.00
6496;DHT22;3281;47.658;9.166;2023-10-31T10:32:19;13.60;1.00
6496;DHT22;3281;47.658;9.166;2023-10-31T10:34:46;13.50;1.00
6496;DHT22;3281;47.658;9.166;2023-10-31T10:37:12;13.70;1.00
6496;DHT22;3281;47.658;9.166;2023-10-31T10:39:40;13.60;1.00
6496;DHT22;3281;47.658;9.166;2023-10-31T10:42:09;13.60;1.00
6496;DHT22;3281;47.658;9.166;2023-10-31T10:44:35;13.60;1.00
6496;DHT22;3281;47.658;9.166;2023-10-31T10:47:03;13.60;1.00
6496;DHT22;3281;47.658;9.166;2023-10-31T10:49:32;13.60;1.00
6496;DHT22;3281;47.658;9.166;2023-10-31T10:52:01;13.60;1.00
6496;DHT22;3281;47.658;9.166;2023-10-31T10:54:31;13.60;1.00
6496;DHT22;3281;47.658;9.166;2023-10-31T10:57:03;13.70;1.00
6496;DHT22;3281;47.658;9.166;2023-10-31T10:59:37;13.80;1.00
6496;DHT22;3281;47.658;9.166;2023-10-31T11:02:04;13.90;1.00
6496;DHT22;3281;47.658;9.166;2023-10-31T11:04:32;13.90;1.00
6496;DHT22;3281;47.658;9.166;2023-10-31T11:07:00;14.00;1.00
6496;DHT22;3281;47.658;9.166;2023-10-31T11:09:26;14.10;1.00
6496;DHT22;3281;47.658;9.166;2023-10-31T11:11:53;14.10;1.00
6496;DHT22;3281;47.658;9.166;2023-10-31T11:14:21;14.20;1.00
6496;DHT22;3281;47.658;9.166;2023-10-31T11:16:51;14.20;1.00
6496;DHT22;3281;47.658;9.166;2023-10-31T11:19:18;14.20;1.00
6496;DHT22;3281;47.658;9.166;2023-10-31T11:21:54;14.20;1.00
6496;DHT22;3281;47.658;9.166;2023-10-31T11:24:21;14.10;1.00
6496;DHT22;3281;47.658;9.166;2023-10-31T11:26:51;14.00;1.00
6496;DHT22;3281;47.658;9.166;2023-10-31T11:29:17;13.90;1.00
6496;DHT22;3281;47.658;9.166;2023-10-31T11:31:46;13.80;1.00
6496;DHT22;3281;47.658;9.166;2023-10-31T11:34:12;13.70;1.00
6496;DHT22;3281;47.658;9.166;2023-10-31T11:36:39;13.70;1.00
6496;DHT22;3281;47.658;9.166;2023-10-31T11:39:10;13.60;1.00
6496;DHT22;3281;47.658;9.166;2023-10-31T11:41:37;13.50;1.00
6496;DHT22;3281;47.658;9.166;2023-10-31T11:44:03;13.40;1.00
6496;DHT22;3281;47.658;9.166;2023-10-31T11:46:30;13.40;1.00
6496;DHT22;3281;47.658;9.166;2023-10-31T11:48:58;13.50;1.00
6496;DHT22;3281;47.658;9.166;2023-10-31T11:51:25;13.60;1.00
6496;DHT22;3281;47.658;9.166;2023-10-31T11:53:52;13.60;1.00
6496;DHT22;3281;47.658;9.166;2023-10-31T11:56:18;13.60;1.00
6496;DHT22;3281;47.658;9.166;2023-10-31T11:58:54;13.60;1.00
6496;DHT22;3281;47.658;9.166;2023-10-31T12:01:20;13.60;1.00
6496;DHT22;3281;47.658;9.166;2023-10-31T12:03:47;13.70;1.00
6496;DHT22;3281;47.658;9.166;2023-10-31T12:06:16;13.70;1.00
6496;DHT22;3281;47.658;9.166;2023-10-31T12:08:44;13.60;1.00
6496;DHT22;3281;47.658;9.166;2023-10-31T12:11:13;13.70;1.00
6496;DHT22;3281;47.658;9.166;2023-10-31T12:13:41;13.60;1.00
6496;DHT22;3281;47.658;9.166;2023-10-31T12:16:08;13.70;1.00
6496;DHT22;3281;47.658;9.166;2023-10-31T12:18:35;13.80;1.00
6496;DHT22;3281;47.658;9.166;2023-10-31T12:21:02;13.80;1.00
6496;DHT22;3281;47.658;9.166;2023-10-31T12:23:30;13.70;1.00
6496;DHT22;3281;47.658;9.166;2023-10-31T12:25:56;13.80;1.00
6496;DHT22;3281;47.658;9.166;2023-10-31T12:28:24;13.80;1.00
6496;DHT22;3281;47.658;9.166;2023-10-31T12:30:51;13.90;1.00
6496;DHT22;3281;47.658;9.166;2023-10-31T12:33:20;14.00;1.00
6496;DHT22;3281;47.658;9.166;2023-10-31T12:35:47;14.00;1.00
6496;DHT22;3281;47.658;9.166;2023-10-31T12:38:14;14.00;1.00
6496;DHT22;3281;47.658;9.166;2023-10-31T12:40:43;14.00;1.00
6496;DHT22;3281;47.658;9.166;2023-10-31T12:43:10;14.00;1.00
6496;DHT22;3281;47.658;9.166;2023-10-31T12:45:37;13.90;1.00
6496;DHT22;3281;47.658;9.166;2023-10-31T12:48:04;13.90;1.00
6496;DHT22;3281;47.658;9.166;2023-10-31T12:50:30;13.80;1.00
6496;DHT22;3281;47.658;9.166;2023-10-31T12:52:57;13.80;1.00
6496;DHT22;3281;47.658;9.166;2023-10-31T12:55:25;13.90;1.00
6496;DHT22;3281;47.658;9.166;2023-10-31T12:57:53;13.90;1.00
6496;DHT22;3281;47.658;9.166;2023-10-31T13:00:20;14.00;1.00
6496;DHT22;3281;47.658;9.166;2023-10-31T13:02:51;14.10;1.00
6496;DHT22;3281;47.658;9.166;2023-10-31T13:05:18;14.10;1.00
6496;DHT22;3281;47.658;9.166;2023-10-31T13:07:47;14.00;1.00
6496;DHT22;3281;47.658;9.166;2023-10-31T13:10:15;13.90;1.00
6496;DHT22;3281;47.658;9.166;2023-10-31T13:12:43;13.90;1.00
6496;DHT22;3281;47.658;9.166;2023-10-31T13:15:11;13.80;1.00
6496;DHT22;3281;47.658;9.166;2023-10-31T13:17:37;13.70;1.00
6496;DHT22;3281;47.658;9.166;2023-10-31T13:20:04;13.60;1.00
6496;DHT22;3281;47.658;9.166;2023-10-31T13:22:31;13.60;1.00
6496;DHT22;3281;47.658;9.166;2023-10-31T13:24:58;13.60;1.00
6496;DHT22;3281;47.658;9.166;2023-10-31T13:27:24;13.60;1.00
6496;DHT22;3281;47.658;9.166;2023-10-31T13:29:51;13.60;1.00
6496;DHT22;3281;47.658;9.166;2023-10-31T13:32:19;13.60;1.00
6496;DHT22;3281;47.658;9.166;2023-10-31T13:34:46;13.70;1.00
6496;DHT22;3281;47.658;9.166;2023-10-31T13:37:13;13.70;1.00
6496;DHT22;3281;47.658;9.166;2023-10-31T13:39:39;13.80;1.00
6496;DHT22;3281;47.658;9.166;2023-10-31T13:42:06;13.70;1.00
6496;DHT22;3281;47.658;9.166;2023-10-31T13:44:33;13.80;1.00
6496;DHT22;3281;47.658;9.166;2023-10-31T13:47:00;13.80;1.00
6496;DHT22;3281;47.658;9.166;2023-10-31T13:49:28;13.80;1.00
6496;DHT22;3281;47.658;9.166;2023-10-31T13:51:55;13.80;1.00
6496;DHT22;3281;47.658;9.166;2023-10-31T13:54:21;13.90;1.00
6496;DHT22;3281;47.658;9.166;2023-10-31T13:56:48;13.90;1.00
6496;DHT22;3281;47.658;9.166;2023-10-31T13:59:14;13.90;1.00
6496;DHT22;3281;47.658;9.166;2023-10-31T14:01:41;13.80;1.00
6496;DHT22;3281;47.658;9.166;2023-10-31T14:04:07;13.90;1.00
6496;DHT22;3281;47.658;9.166;2023-10-31T14:06:35;13.80;1.00
6496;DHT22;3281;47.658;9.166;2023-10-31T14:09:03;13.80;1.00
6496;DHT22;3281;47.658;9.166;2023-10-31T14:11:32;13.70;1.00
6496;DHT22;3281;47.658;9.166;2023-10-31T14:13:59;13.70;1.00
6496;DHT22;3281;47.658;9.166;2023-10-31T14:16:28;13.60;1.00
6496;DHT22;3281;47.658;9.166;2023-10-31T14:18:55;13.50;1.00
6496;DHT22;3281;47.658;9.166;2023-10-31T14:21:21;13.50;1.00
6496;DHT22;3281;47.658;9.166;2023-10-31T14:23:49;13.40;1.00
6496;DHT22;3281;47.658;9.166;2023-10-31T14:26:19;13.40;1.00
6496;DHT22;3281;47.658;9.166;2023-10-31T14:28:46;13.40;1.00
6496;DHT22;3281;47.658;9.166;2023-10-31T14:31:12;13.40;1.00
6496;DHT22;3281;47.658;9.166;2023-10-31T14:33:39;13.40;1.00
6496;DHT22;3281;47.658;9.166;2023-10-31T14:36:05;13.30;1.00
6496;DHT22;3281;47.658;9.166;2023-10-31T14:38:32;13.30;1.00
6496;DHT22;3281;47.658;9.166;2023-10-31T14:41:00;13.30;1.00
6496;DHT22;3281;47.658;9.166;2023-10-31T14:43:27;13.30;1.00
6496;DHT22;3281;47.658;9.166;2023-10-31T14:45:53;13.30;1.00
6496;DHT22;3281;47.658;9.166;2023-10-31T14:48:20;13.40;1.00
6496;DHT22;3281;47.658;9.166;2023-10-31T14:50:47;13.40;1.00
6496;DHT22;3281;47.658;9.166;2023-10-31T14:53:13;13.40;1.00
6496;DHT22;3281;47.658;9.166;2023-10-31T14:55:40;13.40;1.00
6496;DHT22;3281;47.658;9.166;2023-10-31T14:58:08;13.50;1.00
6496;DHT22;3281;47.658;9.166;2023-10-31T15:00:34;13.50;1.00
6496;DHT22;3281;47.658;9.166;2023-10-31T15:03:01;13.40;1.00
6496;DHT22;3281;47.658;9.166;2023-10-31T15:05:27;13.40;1.00
6496;DHT22;3281;47.658;9.166;2023-10-31T15:07:54;13.40;1.00
6496;DHT22;3281;47.658;9.166;2023-10-31T15:10:21;13.40;1.00
6496;DHT22;3281;47.658;9.166;2023-10-31T15:12:48;13.40;1.00
6496;DHT22;3281;47.658;9.166;2023-10-31T15:15:16;13.50;1.00
6496;DHT22;3281;47.658;9.166;2023-10-31T15:17:42;13.40;1.00
6496;DHT22;3281;47.658;9.166;2023-10-31T15:20:09;13.40;1.00
6496;DHT22;3281;47.658;9.166;2023-10-31T15:22:37;13.40;1.00
6496;DHT22;3281;47.658;9.166;2023-10-31T15:25:05;13.40;1.00
6496;DHT22;3281;47.658;9.166;2023-10-31T15:27:31;13.40;1.00
6496;DHT22;3281;47.658;9.166;2023-10-31T15:29:58;13.40;1.00
6496;DHT22;3281;47.658;9.166;2023-10-31T15:32:26;13.40;1.00
6496;DHT22;3281;47.658;9.166;2023-10-31T15:34:52;13.40;1.00
6496;DHT22;3281;47.658;9.166;2023-10-31T15:37:19;13.40;1.00
6496;DHT22;3281;47.658;9.166;2023-10-31T15:39:46;13.30;1.00
6496;DHT22;3281;47.658;9.166;2023-10-31T15:42:14;13.30;1.00
6496;DHT22;3281;47.658;9.166;2023-10-31T15:44:40;13.20;1.00
6496;DHT22;3281;47.658;9.166;2023-10-31T15:47:07;13.20;1.00
6496;DHT22;3281;47.658;9.166;2023-10-31T15:49:35;13.20;1.00
6496;DHT22;3281;47.658;9.166;2023-10-31T15:52:03;13.10;1.00
6496;DHT22;3281;47.658;9.166;2023-10-31T15:54:30;13.10;1.00
6496;DHT22;3281;47.658;9.166;2023-10-31T15:56:57;13.10;1.00
6496;DHT22;3281;47.658;9.166;2023-10-31T15:59:24;13.10;1.00
6496;DHT22;3281;47.658;9.166;2023-10-31T16:01:51;13.10;1.00
6496;DHT22;3281;47.658;9.166;2023-10-31T16:04:17;13.10;1.00
6496;DHT22;3281;47.658;9.166;2023-10-31T16:06:46;13.10;1.00
6496;DHT22;3281;47.658;9.166;2023-10-31T16:09:13;13.00;1.00
6496;DHT22;3281;47.658;9.166;2023-10-31T16:11:39;13.00;1.00
6496;DHT22;3281;47.658;9.166;2023-10-31T16:14:06;12.90;1.00